sensor_id;sensor_type;location;lat;lon;timestamp;pressure;altitude;pressure_sealevel;temperature;humidity
53932;BME280;39844;52.496;13.482;2023-04-27T00:00:29;101593.06;;;7.80;61.70
53932;BME280;39844;52.496;13.482;2023-04-27T00:02:54;101594.78;;;7.78;61.26
53932;BME280;39844;52.496;13.482;2023-04-27T00:05:20;101594.69;;;7.75;60.43
53932;BME280;39844;52.496;13.482;2023-04-27T00:07:45;101586.81;;;7.73;60.71
53932;BME280;39844;52.496;13.482;2023-04-27T00:10:10;101589.38;;;7.70;60.40
53932;BME280;39844;52.496;13.482;2023-04-27T00:12:36;101588.44;;;7.68;60.08
53932;BME280;39844;52.496;13.482;2023-04-27T00:15:01;101587.53;;;7.66;59.42
53932;BME280;39844;52.496;13.482;2023-04-27T00:17:26;101581.41;;;7.64;60.47
53932;BME280;39844;52.496;13.482;2023-04-27T00:19:52;101583.19;;;7.65;60.34
53932;BME280;39844;52.496;13.482;2023-04-27T00:22:17;101579.69;;;7.64;60.44
53932;BME280;39844;52.496;13.482;2023-04-27T00:24:42;101577.91;;;7.63;60.61
53932;BME280;39844;52.496;13.482;2023-04-27T00:27:08;101586.59;;;7.62;60.31
53932;BME280;39844;52.496;13.482;2023-04-27T00:29:33;101584.00;;;7.62;61.07
53932;BME280;39844;52.496;13.482;2023-04-27T00:31:58;101584.81;;;7.60;60.20
53932;BME280;39844;52.496;13.482;2023-04-27T00:34:24;101592.56;;;7.57;59.96
53932;BME280;39844;52.496;13.482;2023-04-27T00:36:49;101584.66;;;7.54;59.82
53932;BME280;39844;52.496;13.482;2023-04-27T00:39:14;101593.34;;;7.53;60.66
53932;BME280;39844;52.496;13.482;2023-04-27T00:41:39;101595.94;;;7.51;61.29
53932;BME280;39844;52.496;13.482;2023-04-27T00:44:06;101593.22;;;7.48;60.79
53932;BME280;39844;52.496;13.482;2023-04-27T00:46:32;101594.09;;;7.47;60.84
53932;BME280;39844;52.496;13.482;2023-04-27T00:48:58;101595.78;;;7.45;60.88
53932;BME280;39844;52.496;13.482;2023-04-27T00:51:24;101597.47;;;7.43;60.48
53932;BME280;39844;52.496;13.482;2023-04-27T00:53:49;101598.38;;;7.44;60.58
53932;BME280;39844;52.496;13.482;2023-04-27T00:56:16;101602.69;;;7.43;61.09
53932;BME280;39844;52.496;13.482;2023-04-27T00:58:41;101606.19;;;7.44;61.39
53932;BME280;39844;52.496;13.482;2023-04-27T01:01:08;101599.19;;;7.41;60.45
53932;BME280;39844;52.496;13.482;2023-04-27T01:03:34;101603.50;;;7.41;61.45
53932;BME280;39844;52.496;13.482;2023-04-27T01:05:59;101601.81;;;7.43;62.34
53932;BME280;39844;52.496;13.482;2023-04-27T01:08:24;101604.34;;;7.40;61.03
53932;BME280;39844;52.496;13.482;2023-04-27T01:10:50;101611.31;;;7.39;61.16
53932;BME280;39844;52.496;13.482;2023-04-27T01:13:15;101606.03;;;7.36;60.94
53932;BME280;39844;52.496;13.482;2023-04-27T01:15:40;101609.44;;;7.34;60.75
53932;BME280;39844;52.496;13.482;2023-04-27T01:18:06;101611.09;;;7.30;60.74
53932;BME280;39844;52.496;13.482;2023-04-27T01:20:31;101614.53;;;7.28;60.48
53932;BME280;39844;52.496;13.482;2023-04-27T01:22:56;101612.72;;;7.25;60.01
53932;BME280;39844;52.496;13.482;2023-04-27T01:25:22;101608.31;;;7.23;59.81
53932;BME280;39844;52.496;13.482;2023-04-27T01:27:47;101609.16;;;7.22;59.78
53932;BME280;39844;52.496;13.482;2023-04-27T01:30:13;101617.84;;;7.22;60.15
53932;BME280;39844;52.496;13.482;2023-04-27T01:32:38;101615.25;;;7.22;59.96
53932;BME280;39844;52.496;13.482;2023-04-27T01:35:04;101613.50;;;7.21;60.38
53932;BME280;39844;52.496;13.482;2023-04-27T01:37:30;101617.84;;;7.22;60.91
53932;BME280;39844;52.496;13.482;2023-04-27T01:39:55;101623.06;;;7.21;60.87
53932;BME280;39844;52.496;13.482;2023-04-27T01:42:20;101618.75;;;7.23;62.49
53932;BME280;39844;52.496;13.482;2023-04-27T01:44:46;101620.47;;;7.22;62.46
53932;BME280;39844;52.496;13.482;2023-04-27T01:47:14;101620.44;;;7.21;62.23
53932;BME280;39844;52.496;13.482;2023-04-27T01:49:39;101623.06;;;7.21;63.29
53932;BME280;39844;52.496;13.482;2023-04-27T01:52:05;101624.78;;;7.20;63.59
53932;BME280;39844;52.496;13.482;2023-04-27T01:54:30;101628.25;;;7.19;64.04
53932;BME280;39844;52.496;13.482;2023-04-27T01:56:55;101634.28;;;7.17;63.21
53932;BME280;39844;52.496;13.482;2023-04-27T01:59:20;101631.53;;;7.12;62.91
53932;BME280;39844;52.496;13.482;2023-04-27T02:01:46;101633.22;;;7.10;63.55
53932;BME280;39844;52.496;13.482;2023-04-27T02:04:11;101633.22;;;7.10;63.98
53932;BME280;39844;52.496;13.482;2023-04-27T02:06:36;101636.72;;;7.11;63.94
53932;BME280;39844;52.496;13.482;2023-04-27T02:09:01;101633.16;;;7.07;63.39
53932;BME280;39844;52.496;13.482;2023-04-27T02:11:27;101635.75;;;7.07;64.47
53932;BME280;39844;52.496;13.482;2023-04-27T02:13:52;101636.63;;;7.06;64.45
53932;BME280;39844;52.496;13.482;2023-04-27T02:16:17;101647.97;;;7.07;64.53
53932;BME280;39844;52.496;13.482;2023-04-27T02:18:43;101650.50;;;7.05;64.17
53932;BME280;39844;52.496;13.482;2023-04-27T02:21:09;101647.00;;;7.03;63.81
53932;BME280;39844;52.496;13.482;2023-04-27T02:23:34;101653.91;;;7.01;63.04
53932;BME280;39844;52.496;13.482;2023-04-27T02:25:59;101653.91;;;7.01;63.74
53932;BME280;39844;52.496;13.482;2023-04-27T02:28:24;101655.59;;;6.99;63.44
53932;BME280;39844;52.496;13.482;2023-04-27T02:30:50;101662.53;;;6.98;63.38
53932;BME280;39844;52.496;13.482;2023-04-27T02:33:15;101658.97;;;6.95;63.01
53932;BME280;39844;52.496;13.482;2023-04-27T02:35:40;101655.50;;;6.96;64.60
53932;BME280;39844;52.496;13.482;2023-04-27T02:38:06;101657.22;;;6.94;63.30
53932;BME280;39844;52.496;13.482;2023-04-27T02:40:31;101664.97;;;6.92;62.78
53932;BME280;39844;52.496;13.482;2023-04-27T02:42:56;101663.22;;;6.91;62.80
53932;BME280;39844;52.496;13.482;2023-04-27T02:45:21;101650.13;;;6.90;62.57
53932;BME280;39844;52.496;13.482;2023-04-27T02:47:47;101664.94;;;6.91;62.61
53932;BME280;39844;52.496;13.482;2023-04-27T02:50:12;101659.66;;;6.88;62.40
53932;BME280;39844;52.496;13.482;2023-04-27T02:52:37;101659.59;;;6.86;63.17
53932;BME280;39844;52.496;13.482;2023-04-27T02:55:03;101658.72;;;6.86;63.07
53932;BME280;39844;52.496;13.482;2023-04-27T02:57:28;101665.66;;;6.85;63.14
53932;BME280;39844;52.496;13.482;2023-04-27T02:59:53;101664.69;;;6.82;62.54
53932;BME280;39844;52.496;13.482;2023-04-27T03:02:19;101660.34;;;6.81;62.31
53932;BME280;39844;52.496;13.482;2023-04-27T03:04:44;101668.16;;;6.81;63.26
53932;BME280;39844;52.496;13.482;2023-04-27T03:07:09;101666.41;;;6.81;63.21
53932;BME280;39844;52.496;13.482;2023-04-27T03:09:35;101668.09;;;6.79;62.96
53932;BME280;39844;52.496;13.482;2023-04-27T03:12:00;101675.03;;;6.79;62.99
53932;BME280;39844;52.496;13.482;2023-04-27T03:14:25;101674.19;;;6.78;63.63
53932;BME280;39844;52.496;13.482;2023-04-27T03:16:50;101673.25;;;6.76;63.29
53932;BME280;39844;52.496;13.482;2023-04-27T03:19:16;101675.81;;;6.75;63.16
53932;BME280;39844;52.496;13.482;2023-04-27T03:21:41;101676.72;;;6.75;64.28
53932;BME280;39844;52.496;13.482;2023-04-27T03:24:06;101665.34;;;6.73;63.76
53932;BME280;39844;52.496;13.482;2023-04-27T03:26:32;101675.72;;;6.72;63.64
53932;BME280;39844;52.496;13.482;2023-04-27T03:28:57;101668.81;;;6.74;63.88
53932;BME280;39844;52.496;13.482;2023-04-27T03:31:22;101673.19;;;6.73;64.86
53932;BME280;39844;52.496;13.482;2023-04-27T03:33:47;101681.94;;;6.75;65.24
53932;BME280;39844;52.496;13.482;2023-04-27T03:36:13;101679.25;;;6.74;64.16
53932;BME280;39844;52.496;13.482;2023-04-27T03:38:38;101677.44;;;6.71;64.33
53932;BME280;39844;52.496;13.482;2023-04-27T03:41:03;101682.66;;;6.70;64.07
53932;BME280;39844;52.496;13.482;2023-04-27T03:43:29;101690.44;;;6.68;63.86
53932;BME280;39844;52.496;13.482;2023-04-27T03:45:54;101699.09;;;6.67;64.09
53932;BME280;39844;52.496;13.482;2023-04-27T03:48:19;101696.47;;;6.66;63.79
53932;BME280;39844;52.496;13.482;2023-04-27T03:50:45;101692.91;;;6.64;63.18
53932;BME280;39844;52.496;13.482;2023-04-27T03:53:11;101706.81;;;6.63;62.94
53932;BME280;39844;52.496;13.482;2023-04-27T03:55:38;101698.13;;;6.64;63.33
53932;BME280;39844;52.496;13.482;2023-04-27T03:58:03;101706.81;;;6.63;63.42
53932;BME280;39844;52.496;13.482;2023-04-27T04:00:28;101705.88;;;6.61;63.07
53932;BME280;39844;52.496;13.482;2023-04-27T04:02:53;101710.25;;;6.62;63.73
53932;BME280;39844;52.496;13.482;2023-04-27T04:05:19;101708.53;;;6.62;62.94
53932;BME280;39844;52.496;13.482;2023-04-27T04:07:44;101711.09;;;6.61;63.47
53932;BME280;39844;52.496;13.482;2023-04-27T04:10:10;101714.63;;;6.63;63.88
53932;BME280;39844;52.496;13.482;2023-04-27T04:12:35;101710.25;;;6.62;63.13
53932;BME280;39844;52.496;13.482;2023-04-27T04:15:04;101722.53;;;6.66;64.84
53932;BME280;39844;52.496;13.482;2023-04-27T04:17:29;101721.75;;;6.68;64.72
53932;BME280;39844;52.496;13.482;2023-04-27T04:19:55;101725.16;;;6.66;63.19
53932;BME280;39844;52.496;13.482;2023-04-27T04:22:20;101725.94;;;6.63;63.34
53932;BME280;39844;52.496;13.482;2023-04-27T04:24:45;101729.41;;;6.64;62.83
53932;BME280;39844;52.496;13.482;2023-04-27T04:27:11;101731.16;;;6.63;62.60
53932;BME280;39844;52.496;13.482;2023-04-27T04:29:36;101732.88;;;6.63;62.66
53932;BME280;39844;52.496;13.482;2023-04-27T04:32:01;101728.56;;;6.63;62.89
53932;BME280;39844;52.496;13.482;2023-04-27T04:34:26;101730.28;;;6.63;62.79
53932;BME280;39844;52.496;13.482;2023-04-27T04:36:52;101739.84;;;6.64;63.04
53932;BME280;39844;52.496;13.482;2023-04-27T04:39:18;101732.03;;;6.64;63.33
53932;BME280;39844;52.496;13.482;2023-04-27T04:41:43;101748.63;;;6.66;63.13
53932;BME280;39844;52.496;13.482;2023-04-27T04:44:09;101739.13;;;6.68;63.32
53932;BME280;39844;52.496;13.482;2023-04-27T04:46:34;101741.03;;;6.75;64.48
53932;BME280;39844;52.496;13.482;2023-04-27T04:48:59;101739.28;;;6.74;62.60
53932;BME280;39844;52.496;13.482;2023-04-27T04:51:24;101735.00;;;6.76;63.24
53932;BME280;39844;52.496;13.482;2023-04-27T04:53:50;101737.66;;;6.79;62.76
53932;BME280;39844;52.496;13.482;2023-04-27T04:56:15;101737.72;;;6.80;62.43
53932;BME280;39844;52.496;13.482;2023-04-27T04:58:40;101737.84;;;6.85;63.57
53932;BME280;39844;52.496;13.482;2023-04-27T05:01:06;101747.56;;;6.89;62.42
53932;BME280;39844;52.496;13.482;2023-04-27T05:03:31;101748.38;;;6.88;61.90
53932;BME280;39844;52.496;13.482;2023-04-27T05:05:56;101757.22;;;6.93;62.20
53932;BME280;39844;52.496;13.482;2023-04-27T05:08:22;101749.47;;;6.96;63.22
53932;BME280;39844;52.496;13.482;2023-04-27T05:10:51;101753.09;;;7.01;62.84
53932;BME280;39844;52.496;13.482;2023-04-27T05:13:16;101756.63;;;7.03;63.04
53932;BME280;39844;52.496;13.482;2023-04-27T05:15:42;101751.41;;;7.03;61.61
53932;BME280;39844;52.496;13.482;2023-04-27T05:18:07;101758.41;;;7.04;62.02
53932;BME280;39844;52.496;13.482;2023-04-27T05:20:36;101758.44;;;7.07;61.37
53932;BME280;39844;52.496;13.482;2023-04-27T05:23:02;101760.25;;;7.08;61.36
53932;BME280;39844;52.496;13.482;2023-04-27T05:25:31;101758.63;;;7.13;62.24
53932;BME280;39844;52.496;13.482;2023-04-27T05:27:57;101756.13;;;7.18;62.08
53932;BME280;39844;52.496;13.482;2023-04-27T05:30:22;101749.22;;;7.20;62.18
53932;BME280;39844;52.496;13.482;2023-04-27T05:32:47;101752.78;;;7.22;61.59
53932;BME280;39844;52.496;13.482;2023-04-27T05:35:13;101757.22;;;7.26;61.80
53932;BME280;39844;52.496;13.482;2023-04-27T05:37:38;101747.81;;;7.32;63.57
53932;BME280;39844;52.496;13.482;2023-04-27T05:40:04;101753.22;;;7.40;63.14
53932;BME280;39844;52.496;13.482;2023-04-27T05:42:29;101754.03;;;7.37;62.07
53932;BME280;39844;52.496;13.482;2023-04-27T05:44:55;101761.84;;;7.36;61.59
53932;BME280;39844;52.496;13.482;2023-04-27T05:47:20;101760.00;;;7.32;60.46
53932;BME280;39844;52.496;13.482;2023-04-27T05:49:49;101762.72;;;7.36;61.19
53932;BME280;39844;52.496;13.482;2023-04-27T05:52:15;101762.00;;;7.42;62.10
53932;BME280;39844;52.496;13.482;2023-04-27T05:54:45;101761.94;;;7.40;61.47
53932;BME280;39844;52.496;13.482;2023-04-27T05:57:10;101752.38;;;7.39;61.33
53932;BME280;39844;52.496;13.482;2023-04-27T05:59:36;101769.88;;;7.43;61.65
53932;BME280;39844;52.496;13.482;2023-04-27T06:02:01;101763.03;;;7.48;61.68
53932;BME280;39844;52.496;13.482;2023-04-27T06:04:26;101772.91;;;7.60;63.18
53932;BME280;39844;52.496;13.482;2023-04-27T06:06:51;101770.34;;;7.61;61.13
53932;BME280;39844;52.496;13.482;2023-04-27T06:09:17;101779.00;;;7.60;60.19
53932;BME280;39844;52.496;13.482;2023-04-27T06:11:42;101773.66;;;7.54;59.93
53932;BME280;39844;52.496;13.482;2023-04-27T06:14:07;101783.03;;;7.48;60.07
53932;BME280;39844;52.496;13.482;2023-04-27T06:16:33;101777.63;;;7.40;60.14
53932;BME280;39844;52.496;13.482;2023-04-27T06:18:58;101780.16;;;7.37;60.61
53932;BME280;39844;52.496;13.482;2023-04-27T06:21:23;101782.75;;;7.37;60.39
53932;BME280;39844;52.496;13.482;2023-04-27T06:23:48;101782.81;;;7.39;60.40
53932;BME280;39844;52.496;13.482;2023-04-27T06:26:14;101791.59;;;7.42;61.09
53932;BME280;39844;52.496;13.482;2023-04-27T06:28:39;101784.78;;;7.47;60.09
53932;BME280;39844;52.496;13.482;2023-04-27T06:31:04;101786.50;;;7.47;59.09
53932;BME280;39844;52.496;13.482;2023-04-27T06:33:30;101790.13;;;7.52;59.08
53932;BME280;39844;52.496;13.482;2023-04-27T06:35:55;101792.75;;;7.52;58.23
53932;BME280;39844;52.496;13.482;2023-04-27T06:38:20;101783.94;;;7.48;57.84
53932;BME280;39844;52.496;13.482;2023-04-27T06:40:49;101786.50;;;7.47;58.33
53932;BME280;39844;52.496;13.482;2023-04-27T06:43:14;101786.50;;;7.47;58.70
53932;BME280;39844;52.496;13.482;2023-04-27T06:45:40;101793.56;;;7.51;59.36
53932;BME280;39844;52.496;13.482;2023-04-27T06:48:05;101794.47;;;7.51;57.83
53932;BME280;39844;52.496;13.482;2023-04-27T06:50:30;101791.03;;;7.54;57.24
53932;BME280;39844;52.496;13.482;2023-04-27T06:52:56;101786.72;;;7.56;57.66
53932;BME280;39844;52.496;13.482;2023-04-27T06:55:21;101792.06;;;7.60;58.35
53932;BME280;39844;52.496;13.482;2023-04-27T06:57:46;101791.31;;;7.64;58.95
53932;BME280;39844;52.496;13.482;2023-04-27T07:00:12;101798.47;;;7.72;59.07
53932;BME280;39844;52.496;13.482;2023-04-27T07:02:37;101799.53;;;7.80;59.04
53932;BME280;39844;52.496;13.482;2023-04-27T07:05:03;101792.81;;;7.91;58.49
53932;BME280;39844;52.496;13.482;2023-04-27T07:07:28;101799.00;;;7.93;57.03
53932;BME280;39844;52.496;13.482;2023-04-27T07:09:53;101802.72;;;8.04;57.24
53932;BME280;39844;52.496;13.482;2023-04-27T07:12:19;101809.03;;;8.12;57.85
53932;BME280;39844;52.496;13.482;2023-04-27T07:14:44;101799.53;;;8.17;54.63
53932;BME280;39844;52.496;13.482;2023-04-27T07:17:09;101807.47;;;8.20;54.78
53932;BME280;39844;52.496;13.482;2023-04-27T07:19:35;101799.03;;;8.30;55.56
53932;BME280;39844;52.496;13.482;2023-04-27T07:22:01;101806.25;;;8.42;55.74
53932;BME280;39844;52.496;13.482;2023-04-27T07:24:26;101809.72;;;8.41;54.71
53932;BME280;39844;52.496;13.482;2023-04-27T07:26:51;101811.44;;;8.39;54.29
53932;BME280;39844;52.496;13.482;2023-04-27T07:29:17;101808.91;;;8.43;54.94
53932;BME280;39844;52.496;13.482;2023-04-27T07:31:42;101806.41;;;8.49;53.54
53932;BME280;39844;52.496;13.482;2023-04-27T07:34:07;101809.81;;;8.45;53.44
53932;BME280;39844;52.496;13.482;2023-04-27T07:36:33;101808.00;;;8.41;54.39
53932;BME280;39844;52.496;13.482;2023-04-27T07:38:58;101810.63;;;8.43;53.80
53932;BME280;39844;52.496;13.482;2023-04-27T07:41:23;101806.28;;;8.43;53.85
53932;BME280;39844;52.496;13.482;2023-04-27T07:43:49;101805.56;;;8.50;55.09
53932;BME280;39844;52.496;13.482;2023-04-27T07:46:14;101808.25;;;8.53;54.35
53932;BME280;39844;52.496;13.482;2023-04-27T07:48:39;101812.75;;;8.60;54.38
53932;BME280;39844;52.496;13.482;2023-04-27T07:51:04;101809.25;;;8.60;53.74
53932;BME280;39844;52.496;13.482;2023-04-27T07:53:30;101808.56;;;8.67;55.00
53932;BME280;39844;52.496;13.482;2023-04-27T07:55:55;101811.22;;;8.70;53.95
53932;BME280;39844;52.496;13.482;2023-04-27T07:58:20;101817.56;;;8.79;54.31
53932;BME280;39844;52.496;13.482;2023-04-27T08:00:46;101815.03;;;8.85;53.20
53932;BME280;39844;52.496;13.482;2023-04-27T08:03:11;101813.41;;;8.90;53.69
53932;BME280;39844;52.496;13.482;2023-04-27T08:05:36;101799.56;;;8.98;53.83
53932;BME280;39844;52.496;13.482;2023-04-27T08:08:02;101813.69;;;9.06;54.16
53932;BME280;39844;52.496;13.482;2023-04-27T08:10:27;101807.56;;;9.04;52.51
53932;BME280;39844;52.496;13.482;2023-04-27T08:12:52;101809.13;;;8.96;51.65
53932;BME280;39844;52.496;13.482;2023-04-27T08:15:19;101807.31;;;8.92;53.05
53932;BME280;39844;52.496;13.482;2023-04-27T08:17:44;101811.66;;;8.89;52.50
53932;BME280;39844;52.496;13.482;2023-04-27T08:20:10;101810.00;;;8.95;52.99
53932;BME280;39844;52.496;13.482;2023-04-27T08:22:37;101817.00;;;8.96;52.24
53932;BME280;39844;52.496;13.482;2023-04-27T08:25:02;101821.47;;;9.01;51.45
53932;BME280;39844;52.496;13.482;2023-04-27T08:27:28;101822.31;;;8.99;51.08
53932;BME280;39844;52.496;13.482;2023-04-27T08:29:53;101816.09;;;8.94;50.67
53932;BME280;39844;52.496;13.482;2023-04-27T08:32:18;101828.06;;;8.82;50.90
53932;BME280;39844;52.496;13.482;2023-04-27T08:34:43;101825.44;;;8.82;52.21
53932;BME280;39844;52.496;13.482;2023-04-27T08:37:09;101811.66;;;8.89;51.60
53932;BME280;39844;52.496;13.482;2023-04-27T08:39:34;101823.25;;;9.02;51.00
53932;BME280;39844;52.496;13.482;2023-04-27T08:42:00;101823.44;;;9.11;51.40
53932;BME280;39844;52.496;13.482;2023-04-27T08:44:25;101831.28;;;9.13;51.11
53932;BME280;39844;52.496;13.482;2023-04-27T08:46:50;101815.44;;;9.05;50.37
53932;BME280;39844;52.496;13.482;2023-04-27T08:49:16;101826.78;;;9.04;51.03
53932;BME280;39844;52.496;13.482;2023-04-27T08:51:42;101821.50;;;9.03;49.63
53932;BME280;39844;52.496;13.482;2023-04-27T08:54:07;101816.25;;;9.03;50.02
53932;BME280;39844;52.496;13.482;2023-04-27T08:56:32;101822.47;;;9.08;50.26
53932;BME280;39844;52.496;13.482;2023-04-27T08:58:59;101821.81;;;9.18;50.85
53932;BME280;39844;52.496;13.482;2023-04-27T09:01:25;101830.59;;;9.20;48.97
53932;BME280;39844;52.496;13.482;2023-04-27T09:03:58;101819.22;;;9.21;48.66
53932;BME280;39844;52.496;13.482;2023-04-27T09:06:34;101822.00;;;9.28;49.34
53932;BME280;39844;52.496;13.482;2023-04-27T09:09:00;101825.59;;;9.33;48.76
53932;BME280;39844;52.496;13.482;2023-04-27T09:11:35;101828.88;;;9.23;48.34
53932;BME280;39844;52.496;13.482;2023-04-27T09:14:13;101826.31;;;9.25;49.25
53932;BME280;39844;52.496;13.482;2023-04-27T09:16:39;101825.44;;;9.26;48.71
53932;BME280;39844;52.496;13.482;2023-04-27T09:19:04;101819.50;;;9.33;49.67
53932;BME280;39844;52.496;13.482;2023-04-27T09:21:29;101822.34;;;9.45;49.44
53932;BME280;39844;52.496;13.482;2023-04-27T09:23:55;101814.53;;;9.48;48.82
53932;BME280;39844;52.496;13.482;2023-04-27T09:26:23;101807.56;;;9.50;47.87
53932;BME280;39844;52.496;13.482;2023-04-27T09:28:50;101805.03;;;9.54;47.91
53932;BME280;39844;52.496;13.482;2023-04-27T09:31:16;101813.16;;;9.71;48.50
53932;BME280;39844;52.496;13.482;2023-04-27T09:33:43;101804.56;;;9.78;47.18
53932;BME280;39844;52.496;13.482;2023-04-27T09:36:08;101807.16;;;9.77;47.93
53932;BME280;39844;52.496;13.482;2023-04-27T09:38:34;101804.34;;;9.66;47.71
53932;BME280;39844;52.496;13.482;2023-04-27T09:40:59;101794.47;;;9.51;48.03
53932;BME280;39844;52.496;13.482;2023-04-27T09:43:25;101802.22;;;9.44;49.14
53932;BME280;39844;52.496;13.482;2023-04-27T09:45:50;101802.91;;;9.34;47.97
53932;BME280;39844;52.496;13.482;2023-04-27T09:48:16;101805.50;;;9.34;49.00
53932;BME280;39844;52.496;13.482;2023-04-27T09:50:43;101795.91;;;9.33;49.45
53932;BME280;39844;52.496;13.482;2023-04-27T09:53:14;101791.63;;;9.38;49.01
53932;BME280;39844;52.496;13.482;2023-04-27T09:55:54;101794.59;;;9.58;49.98
53932;BME280;39844;52.496;13.482;2023-04-27T10:01:17;101790.69;;;9.84;49.51
53932;BME280;39844;52.496;13.482;2023-04-27T10:09:22;101788.56;;;10.15;45.97
53932;BME280;39844;52.496;13.482;2023-04-27T10:11:48;101781.69;;;10.24;45.92
53932;BME280;39844;52.496;13.482;2023-04-27T10:14:18;101775.88;;;10.46;46.92
53932;BME280;39844;52.496;13.482;2023-04-27T10:16:53;101783.06;;;10.59;45.17
53932;BME280;39844;52.496;13.482;2023-04-27T10:19:20;101775.97;;;10.52;45.08
53932;BME280;39844;52.496;13.482;2023-04-27T10:24:17;101771.72;;;10.61;45.66
53932;BME280;39844;52.496;13.482;2023-04-27T10:26:46;101758.69;;;10.69;45.73
53932;BME280;39844;52.496;13.482;2023-04-27T10:29:12;101772.97;;;10.94;44.12
53932;BME280;39844;52.496;13.482;2023-04-27T10:31:42;101766.41;;;11.36;42.96
53932;BME280;39844;52.496;13.482;2023-04-27T10:34:09;101768.25;;;11.47;42.28
53932;BME280;39844;52.496;13.482;2023-04-27T10:36:36;101768.19;;;11.37;41.34
53932;BME280;39844;52.496;13.482;2023-04-27T10:39:02;101770.97;;;11.56;40.22
53932;BME280;39844;52.496;13.482;2023-04-27T10:41:33;101766.44;;;11.39;40.46
53932;BME280;39844;52.496;13.482;2023-04-27T10:44:14;101765.53;;;11.34;41.27
53932;BME280;39844;52.496;13.482;2023-04-27T10:46:50;101772.88;;;11.70;39.97
53932;BME280;39844;52.496;13.482;2023-04-27T10:49:16;101773.69;;;11.62;39.32
53932;BME280;39844;52.496;13.482;2023-04-27T10:51:41;101771.78;;;11.47;38.99
53932;BME280;39844;52.496;13.482;2023-04-27T10:54:07;101763.81;;;11.39;41.04
53932;BME280;39844;52.496;13.482;2023-04-27T10:56:33;101779.84;;;11.67;41.50
53932;BME280;39844;52.496;13.482;2023-04-27T10:59:02;101776.63;;;11.99;39.21
53932;BME280;39844;52.496;13.482;2023-04-27T11:01:28;101773.25;;;12.23;38.27
53932;BME280;39844;52.496;13.482;2023-04-27T11:03:57;101761.09;;;12.42;37.43
53932;BME280;39844;52.496;13.482;2023-04-27T11:06:23;101759.63;;;13.10;38.75
53932;BME280;39844;52.496;13.482;2023-04-27T11:08:49;101752.66;;;13.37;35.40
53932;BME280;39844;52.496;13.482;2023-04-27T11:11:15;101754.44;;;13.69;35.74
53932;BME280;39844;52.496;13.482;2023-04-27T11:13:41;101750.00;;;14.08;35.89
53932;BME280;39844;52.496;13.482;2023-04-27T11:16:08;101742.81;;;14.64;36.36
53932;BME280;39844;52.496;13.482;2023-04-27T11:18:36;101745.28;;;14.93;35.11
53932;BME280;39844;52.496;13.482;2023-04-27T11:23:35;101749.94;;;14.44;36.71
53932;BME280;39844;52.496;13.482;2023-04-27T11:26:14;101761.44;;;13.84;35.99
53932;BME280;39844;52.496;13.482;2023-04-27T11:28:41;101771.16;;;13.62;36.49
53932;BME280;39844;52.496;13.482;2023-04-27T11:31:06;101761.41;;;13.25;37.41
53932;BME280;39844;52.496;13.482;2023-04-27T11:33:32;101778.88;;;12.90;37.65
53932;BME280;39844;52.496;13.482;2023-04-27T11:35:58;101776.06;;;12.50;37.20
53932;BME280;39844;52.496;13.482;2023-04-27T11:38:24;101770.69;;;12.29;39.21
53932;BME280;39844;52.496;13.482;2023-04-27T11:41:00;101775.81;;;12.08;38.37
53932;BME280;39844;52.496;13.482;2023-04-27T11:43:26;101788.00;;;11.94;38.44
53932;BME280;39844;52.496;13.482;2023-04-27T11:48:28;101783.50;;;11.81;37.27
53932;BME280;39844;52.496;13.482;2023-04-27T11:50:56;101777.31;;;11.77;37.17
53932;BME280;39844;52.496;13.482;2023-04-27T11:53:37;101781.66;;;11.69;36.42
53932;BME280;39844;52.496;13.482;2023-04-27T11:56:04;101792.91;;;11.58;37.99
53932;BME280;39844;52.496;13.482;2023-04-27T11:58:34;101787.59;;;11.49;39.12
53932;BME280;39844;52.496;13.482;2023-04-27T12:01:00;101791.91;;;11.43;38.64
53932;BME280;39844;52.496;13.482;2023-04-27T12:03:29;101799.81;;;11.47;41.54
53932;BME280;39844;52.496;13.482;2023-04-27T12:05:55;101796.28;;;11.44;39.28
53932;BME280;39844;52.496;13.482;2023-04-27T12:08:20;101804.13;;;11.41;39.98
53932;BME280;39844;52.496;13.482;2023-04-27T12:10:45;101802.44;;;11.43;39.66
53932;BME280;39844;52.496;13.482;2023-04-27T12:13:11;101793.66;;;11.43;39.67
53932;BME280;39844;52.496;13.482;2023-04-27T12:15:40;101801.63;;;11.49;40.03
53932;BME280;39844;52.496;13.482;2023-04-27T12:18:06;101801.63;;;11.51;38.85
53932;BME280;39844;52.496;13.482;2023-04-27T12:20:32;101799.97;;;11.62;38.81
53932;BME280;39844;52.496;13.482;2023-04-27T12:22:57;101793.88;;;11.67;38.58
53932;BME280;39844;52.496;13.482;2023-04-27T12:25:23;101790.44;;;11.73;37.85
53932;BME280;39844;52.496;13.482;2023-04-27T12:27:48;101788.72;;;11.72;37.14
53932;BME280;39844;52.496;13.482;2023-04-27T12:30:13;101801.84;;;11.73;38.76
53932;BME280;39844;52.496;13.482;2023-04-27T12:32:39;101799.19;;;11.70;38.20
53932;BME280;39844;52.496;13.482;2023-04-27T12:35:05;101794.66;;;11.56;38.14
53932;BME280;39844;52.496;13.482;2023-04-27T12:37:31;101798.97;;;11.49;38.95
53932;BME280;39844;52.496;13.482;2023-04-27T12:39:56;101796.25;;;11.41;38.45
53932;BME280;39844;52.496;13.482;2023-04-27T12:42:22;101806.75;;;11.38;39.90
53932;BME280;39844;52.496;13.482;2023-04-27T12:44:47;101798.88;;;11.41;39.55
53932;BME280;39844;52.496;13.482;2023-04-27T12:47:12;101801.63;;;11.51;40.06
53932;BME280;39844;52.496;13.482;2023-04-27T12:49:38;101799.09;;;11.61;40.59
53932;BME280;39844;52.496;13.482;2023-04-27T12:52:03;101808.72;;;11.61;39.25
53932;BME280;39844;52.496;13.482;2023-04-27T12:54:29;101801.84;;;11.75;40.15
53932;BME280;39844;52.496;13.482;2023-04-27T12:56:54;101796.78;;;11.96;40.36